createdAt,value
2016-09-04T00:00:51.820Z,0.00
2016-09-04T00:01:52.335Z,0.00
2016-09-04T00:02:52.844Z,0.00
2016-09-04T00:03:53.359Z,0.00
2016-09-04T00:04:53.870Z,0.00
2016-09-04T00:05:54.415Z,0.00
2016-09-04T00:06:55.046Z,0.00
2016-09-04T00:07:55.409Z,0.00
2016-09-04T00:08:55.920Z,0.00
2016-09-04T00:09:56.436Z,0.00
2016-09-04T00:10:56.968Z,0.00
2016-09-04T00:11:57.620Z,0.00
2016-09-04T00:12:57.986Z,0.00
2016-09-04T00:13:58.500Z,0.00
2016-09-04T00:14:59.005Z,0.00
2016-09-04T00:15:59.666Z,0.00
2016-09-04T00:17:00.029Z,0.00
2016-09-04T00:18:00.546Z,0.00
2016-09-04T00:19:01.808Z,0.00
2016-09-04T00:20:01.568Z,0.00
2016-09-04T00:21:02.085Z,0.00
2016-09-04T00:22:02.624Z,0.00
2016-09-04T00:23:03.109Z,0.00
2016-09-04T00:24:03.620Z,0.00
2016-09-04T00:25:04.286Z,0.00
2016-09-04T00:26:04.651Z,0.00
2016-09-04T00:27:05.163Z,0.00
2016-09-04T00:28:05.671Z,0.00
2016-09-04T00:29:06.187Z,0.00
2016-09-04T00:30:06.849Z,0.00
2016-09-04T00:31:07.210Z,0.00
2016-09-04T00:32:07.734Z,0.00
2016-09-04T00:33:08.247Z,0.00
2016-09-04T00:34:08.750Z,0.00
2016-09-04T00:35:10.465Z,0.00
2016-09-04T00:36:09.774Z,0.00
2016-09-04T00:37:10.282Z,0.00
2016-09-04T00:38:10.797Z,0.00
2016-09-04T00:39:11.313Z,0.00
2016-09-04T00:40:11.828Z,0.00
2016-09-04T00:41:12.338Z,0.00
2016-09-04T00:42:12.849Z,0.00
2016-09-04T00:43:13.358Z,0.00
2016-09-04T00:44:13.880Z,0.00
2016-09-04T00:45:14.393Z,0.00
2016-09-04T00:46:14.949Z,0.00
2016-09-04T00:47:15.453Z,0.00
2016-09-04T00:48:15.946Z,0.00
2016-09-04T00:49:16.467Z,0.00
2016-09-04T00:50:16.970Z,0.00
2016-09-04T00:51:17.483Z,0.00
2016-09-04T00:52:18.145Z,0.00
2016-09-04T00:53:18.510Z,0.00
2016-09-04T00:54:19.019Z,0.00
2016-09-04T00:55:19.678Z,0.00
2016-09-04T00:56:20.189Z,0.00
2016-09-04T00:57:20.704Z,0.00
2016-09-04T00:58:21.063Z,0.00
2016-09-04T00:59:21.572Z,0.00
2016-09-04T01:00:22.079Z,0.00
2016-09-04T01:01:22.587Z,0.00
2016-09-04T01:02:23.100Z,0.00
2016-09-04T01:03:23.763Z,0.00
2016-09-04T01:04:24.273Z,0.00
2016-09-04T01:05:24.639Z,0.00
2016-09-04T01:06:25.143Z,0.00
2016-09-04T01:07:25.657Z,0.00
2016-09-04T01:08:26.173Z,0.00
2016-09-04T01:09:26.984Z,0.00
2016-09-04T01:10:27.215Z,0.00
2016-09-04T01:11:27.707Z,0.00
2016-09-04T01:12:28.225Z,0.00
2016-09-04T01:13:28.727Z,0.00
2016-09-04T01:14:29.241Z,0.00
2016-09-04T01:15:29.753Z,0.00
2016-09-04T01:16:30.261Z,0.00
2016-09-04T01:17:30.780Z,0.00
2016-09-04T01:18:31.437Z,0.00
2016-09-04T01:19:31.796Z,0.00
2016-09-04T01:20:32.315Z,0.00
2016-09-04T01:21:32.824Z,0.00
2016-09-04T01:22:33.487Z,0.00
2016-09-04T01:23:34.005Z,0.00
2016-09-04T01:24:36.470Z,0.00
2016-09-04T01:25:34.883Z,0.00
2016-09-04T01:26:35.401Z,0.00
2016-09-04T01:27:36.055Z,0.00
2016-09-04T01:28:36.568Z,0.00
2016-09-04T01:29:36.927Z,0.00
2016-09-04T01:30:37.442Z,0.00
2016-09-04T01:31:37.951Z,0.00
2016-09-04T01:32:38.462Z,0.00
2016-09-04T01:33:38.987Z,0.00
2016-09-04T01:34:39.484Z,0.00
2016-09-04T01:35:39.996Z,0.00
2016-09-04T01:36:40.509Z,0.00
2016-09-04T01:37:41.020Z,0.00
2016-09-04T01:38:41.535Z,0.00
2016-09-04T01:39:42.045Z,0.00
2016-09-04T01:40:42.556Z,0.00
2016-09-04T01:41:43.069Z,0.00
2016-09-04T01:42:43.579Z,0.00
2016-09-04T01:43:44.241Z,0.00
2016-09-04T01:44:44.621Z,0.00
2016-09-04T01:45:45.114Z,0.00
2016-09-04T01:46:45.774Z,0.00
2016-09-04T01:47:46.169Z,0.00
2016-09-04T01:48:46.645Z,0.00
2016-09-04T01:49:47.159Z,0.00
2016-09-04T01:50:47.670Z,0.00
2016-09-04T01:51:48.178Z,0.00
2016-09-04T01:52:48.863Z,0.00
2016-09-04T01:53:49.207Z,0.00
2016-09-04T01:54:50.930Z,0.00
2016-09-04T01:55:50.226Z,0.00
2016-09-04T01:56:50.744Z,0.00
2016-09-04T01:57:51.254Z,0.00
2016-09-04T01:58:51.772Z,0.00
2016-09-04T01:59:52.288Z,0.00
2016-09-04T02:00:52.807Z,0.00
2016-09-04T02:01:53.316Z,0.00
2016-09-04T02:02:53.828Z,0.00
2016-09-04T02:03:54.484Z,0.00
2016-09-04T02:04:54.856Z,0.00
2016-09-04T02:05:55.514Z,0.00
2016-09-04T02:06:55.880Z,0.00
2016-09-04T02:07:56.391Z,0.00
2016-09-04T02:08:56.906Z,0.00
2016-09-04T02:09:57.567Z,0.00
2016-09-04T02:10:57.927Z,0.00
2016-09-04T02:11:58.473Z,0.00
2016-09-04T02:12:58.952Z,0.00
2016-09-04T02:13:59.465Z,0.00
2016-09-04T02:14:59.978Z,0.00
2016-09-04T02:16:00.489Z,0.00
2016-09-04T02:17:01.006Z,0.00
2016-09-04T02:18:01.511Z,0.00
2016-09-04T02:19:02.022Z,0.00
2016-09-04T02:20:02.535Z,0.00
2016-09-04T02:21:03.046Z,0.00
2016-09-04T02:22:03.709Z,0.00
2016-09-04T02:23:04.219Z,0.00
2016-09-04T02:24:04.575Z,0.00
2016-09-04T02:25:05.089Z,0.00
2016-09-04T02:26:05.612Z,0.00
2016-09-04T02:27:06.171Z,0.00
2016-09-04T02:28:06.644Z,0.00
2016-09-04T02:29:07.136Z,0.00
2016-09-04T02:30:07.662Z,0.00
2016-09-04T02:31:08.321Z,0.00
2016-09-04T02:32:08.670Z,0.00
2016-09-04T02:33:09.186Z,0.00
2016-09-04T02:34:10.475Z,0.00
2016-09-04T02:35:10.215Z,0.00
2016-09-04T02:36:10.881Z,0.00
2016-09-04T02:37:11.253Z,0.00
2016-09-04T02:38:11.760Z,0.00
2016-09-04T02:39:12.271Z,0.00
2016-09-04T02:40:12.781Z,0.00
2016-09-04T02:41:13.316Z,0.00
2016-09-04T02:42:13.802Z,0.00
2016-09-04T02:43:14.317Z,0.00
2016-09-04T02:44:14.836Z,0.00
2016-09-04T02:45:15.494Z,0.00
2016-09-04T02:46:16.005Z,0.00
2016-09-04T02:47:16.367Z,0.00
2016-09-04T02:48:16.879Z,0.00
2016-09-04T02:49:17.543Z,0.00
2016-09-04T02:50:17.909Z,0.00
2016-09-04T02:51:18.418Z,0.00
2016-09-04T02:52:19.087Z,0.00
2016-09-04T02:53:19.441Z,0.00
2016-09-04T02:54:19.967Z,0.00
2016-09-04T02:55:20.618Z,0.00
2016-09-04T02:56:20.981Z,0.00
2016-09-04T02:57:21.495Z,0.00
2016-09-04T02:58:22.016Z,0.00
2016-09-04T02:59:22.522Z,0.00
2016-09-04T03:00:23.039Z,0.00
2016-09-04T03:01:23.547Z,0.00
2016-09-04T03:02:24.053Z,0.00
2016-09-04T03:03:24.712Z,0.00
2016-09-04T03:04:25.078Z,0.00
2016-09-04T03:05:27.090Z,0.00
2016-09-04T03:06:26.256Z,0.00
2016-09-04T03:07:26.640Z,0.00
2016-09-04T03:08:27.289Z,0.00
2016-09-04T03:09:27.796Z,0.00
2016-09-04T03:10:28.164Z,0.00
2016-09-04T03:11:28.685Z,0.00
2016-09-04T03:12:29.197Z,0.00
2016-09-04T03:13:29.888Z,0.00
2016-09-04T03:14:30.227Z,0.00
2016-09-04T03:15:30.737Z,0.00
2016-09-04T03:16:31.252Z,0.00
2016-09-04T03:17:31.919Z,0.00
2016-09-04T03:18:32.276Z,0.00
2016-09-04T03:19:32.805Z,0.00
2016-09-04T03:20:33.309Z,0.00
2016-09-04T03:21:33.811Z,0.00
2016-09-04T03:22:34.324Z,0.00
2016-09-04T03:23:34.842Z,0.00
2016-09-04T03:24:35.350Z,0.00
2016-09-04T03:25:35.863Z,0.00
2016-09-04T03:26:36.376Z,0.00
2016-09-04T03:27:36.890Z,0.00
2016-09-04T03:28:37.399Z,0.00
2016-09-04T03:29:37.913Z,0.00
2016-09-04T03:30:38.422Z,0.00
2016-09-04T03:31:38.933Z,0.00
2016-09-04T03:32:39.601Z,0.00
2016-09-04T03:33:39.971Z,0.00
2016-09-04T03:34:40.626Z,0.00
2016-09-04T03:35:40.991Z,0.00
2016-09-04T03:36:41.496Z,0.00
2016-09-04T03:37:42.007Z,0.00
2016-09-04T03:38:42.518Z,0.00
2016-09-04T03:39:43.032Z,0.00
2016-09-04T03:40:43.552Z,0.00
2016-09-04T03:41:44.206Z,0.00
2016-09-04T03:42:44.570Z,0.00
2016-09-04T03:43:45.227Z,0.00
2016-09-04T03:44:45.588Z,0.00
2016-09-04T03:45:46.105Z,0.00
2016-09-04T03:46:46.764Z,0.00
2016-09-04T03:47:47.129Z,0.00
2016-09-04T03:48:47.666Z,0.00
2016-09-04T03:49:48.161Z,0.00
2016-09-04T03:50:48.823Z,0.00
2016-09-04T03:51:49.184Z,0.00
2016-09-04T03:52:49.710Z,0.00
2016-09-04T03:53:50.204Z,0.00
2016-09-04T03:54:50.721Z,0.00
2016-09-04T03:55:51.228Z,0.00
2016-09-04T03:56:51.737Z,0.00
2016-09-04T03:57:52.243Z,0.00
2016-09-04T03:58:52.758Z,0.00
2016-09-04T03:59:53.271Z,0.00
2016-09-04T04:00:53.813Z,0.00
2016-09-04T04:01:54.290Z,0.00
2016-09-04T04:02:54.804Z,0.00
2016-09-04T04:03:56.362Z,0.00
2016-09-04T04:04:55.822Z,0.00
2016-09-04T04:05:56.336Z,0.00
2016-09-04T04:06:56.996Z,0.00
2016-09-04T04:07:57.510Z,0.00
2016-09-04T04:08:57.873Z,0.00
2016-09-04T04:09:58.536Z,0.00
2016-09-04T04:10:58.899Z,0.00
2016-09-04T04:11:59.408Z,0.00
2016-09-04T04:12:59.917Z,0.00
2016-09-04T04:14:00.432Z,0.00
2016-09-04T04:15:00.942Z,0.00
2016-09-04T04:16:01.457Z,0.00
2016-09-04T04:17:01.965Z,0.00
2016-09-04T04:18:02.624Z,0.00
2016-09-04T04:19:03.138Z,0.00
2016-09-04T04:20:03.500Z,0.00
2016-09-04T04:21:04.010Z,0.00
2016-09-04T04:22:04.522Z,0.00
2016-09-04T04:23:05.034Z,0.00
2016-09-04T04:24:05.701Z,0.00
2016-09-04T04:25:06.062Z,0.00
2016-09-04T04:26:06.577Z,0.00
2016-09-04T04:27:07.090Z,0.00
2016-09-04T04:28:07.901Z,0.00
2016-09-04T04:29:08.111Z,0.00
2016-09-04T04:30:08.625Z,0.00
2016-09-04T04:31:09.307Z,0.00
2016-09-04T04:32:09.651Z,0.00
2016-09-04T04:33:10.162Z,0.00
2016-09-04T04:34:10.671Z,0.00
2016-09-04T04:35:11.184Z,0.00
2016-09-04T04:36:11.998Z,0.00
2016-09-04T04:37:12.205Z,0.00
2016-09-04T04:38:12.869Z,0.00
2016-09-04T04:39:13.235Z,0.00
2016-09-04T04:40:13.900Z,0.00
2016-09-04T04:41:14.263Z,0.00
2016-09-04T04:42:14.767Z,0.00
2016-09-04T04:43:15.278Z,0.00
2016-09-04T04:44:15.787Z,0.00
2016-09-04T04:45:16.333Z,0.00
2016-09-04T04:46:16.964Z,0.00
2016-09-04T04:47:17.477Z,0.00
2016-09-04T04:48:17.835Z,0.00
2016-09-04T04:49:19.397Z,0.00
2016-09-04T04:50:18.859Z,0.00
2016-09-04T04:51:19.364Z,0.00
2016-09-04T04:52:19.879Z,0.00
2016-09-04T04:53:20.391Z,0.00
2016-09-04T04:54:20.905Z,0.00
2016-09-04T04:55:21.418Z,0.00
2016-09-04T04:56:22.103Z,0.00
2016-09-04T04:57:22.440Z,0.00
2016-09-04T04:58:22.955Z,0.00
2016-09-04T04:59:23.471Z,0.00
2016-09-04T05:00:23.994Z,0.00
2016-09-04T05:01:24.506Z,0.00
2016-09-04T05:02:25.021Z,0.00
2016-09-04T05:03:25.529Z,0.00
2016-09-04T05:04:26.039Z,0.00
2016-09-04T05:05:26.550Z,0.00
2016-09-04T05:06:27.063Z,0.00
2016-09-04T05:07:27.578Z,0.00
2016-09-04T05:08:28.098Z,0.00
2016-09-04T05:09:28.623Z,0.00
2016-09-04T05:10:29.265Z,0.00
2016-09-04T05:11:29.638Z,0.00
2016-09-04T05:12:30.140Z,0.00
2016-09-04T05:13:30.650Z,0.00
2016-09-04T05:14:31.162Z,0.00
2016-09-04T05:15:31.675Z,0.00
2016-09-04T05:16:32.339Z,1.00
2016-09-04T05:17:32.698Z,1.00
2016-09-04T05:18:33.214Z,1.00
2016-09-04T05:19:33.727Z,1.00
2016-09-04T05:20:34.244Z,1.00
2016-09-04T05:21:34.757Z,1.00
2016-09-04T05:22:35.263Z,1.00
2016-09-04T05:23:35.775Z,1.00
2016-09-04T05:24:36.291Z,2.00
2016-09-04T05:25:36.801Z,2.00
2016-09-04T05:26:37.315Z,2.00
2016-09-04T05:27:37.823Z,2.00
2016-09-04T05:28:38.337Z,2.00
2016-09-04T05:29:38.853Z,2.00
2016-09-04T05:30:39.363Z,2.00
2016-09-04T05:31:39.883Z,2.00
2016-09-04T05:32:40.400Z,2.00
2016-09-04T05:33:41.058Z,2.00
2016-09-04T05:34:41.427Z,2.00
2016-09-04T05:35:41.940Z,2.00
2016-09-04T05:36:42.455Z,1.00
2016-09-04T05:37:42.975Z,1.00
2016-09-04T05:38:43.483Z,2.00
2016-09-04T05:39:43.992Z,2.00
2016-09-04T05:40:44.510Z,2.00
2016-09-04T05:41:45.168Z,2.00
2016-09-04T05:42:45.531Z,2.00
2016-09-04T05:43:46.046Z,2.00
2016-09-04T05:44:46.555Z,2.00
2016-09-04T05:45:47.066Z,2.00
2016-09-04T05:46:47.578Z,2.00
2016-09-04T05:47:48.100Z,1.00
2016-09-04T05:48:48.605Z,1.00
2016-09-04T05:49:49.113Z,1.00
2016-09-04T05:50:49.624Z,1.00
2016-09-04T05:51:50.322Z,1.00
2016-09-04T05:52:50.676Z,1.00
2016-09-04T05:53:51.158Z,1.00
2016-09-04T05:54:51.820Z,1.00
2016-09-04T05:55:52.182Z,1.00
2016-09-04T05:56:52.696Z,1.00
2016-09-04T05:57:53.204Z,2.00
2016-09-04T05:58:53.717Z,2.00
2016-09-04T05:59:54.242Z,2.00
2016-09-04T06:00:54.745Z,2.00
2016-09-04T06:01:55.248Z,2.00
2016-09-04T06:02:55.760Z,2.00
2016-09-04T06:03:56.279Z,2.00
2016-09-04T06:04:56.780Z,2.00
2016-09-04T06:05:57.294Z,2.00
2016-09-04T06:06:57.802Z,2.00
2016-09-04T06:07:58.317Z,2.00
2016-09-04T06:08:58.980Z,1.00
2016-09-04T06:09:59.340Z,2.00
2016-09-04T06:10:59.899Z,2.00
2016-09-04T06:12:00.372Z,2.00
2016-09-04T06:13:00.891Z,2.00
2016-09-04T06:14:01.407Z,2.00
2016-09-04T06:15:01.916Z,3.00
2016-09-04T06:16:02.573Z,3.00
2016-09-04T06:17:02.939Z,3.00
2016-09-04T06:18:03.452Z,4.00
2016-09-04T06:19:04.108Z,4.00
2016-09-04T06:20:04.467Z,5.00
2016-09-04T06:21:04.979Z,5.00
2016-09-04T06:22:05.490Z,6.00
2016-09-04T06:23:06.003Z,6.00
2016-09-04T06:24:06.517Z,6.00
2016-09-04T06:25:07.176Z,6.00
2016-09-04T06:26:07.570Z,6.00
2016-09-04T06:27:08.048Z,6.00
2016-09-04T06:28:08.558Z,5.00
2016-09-04T06:29:09.072Z,5.00
2016-09-04T06:30:09.582Z,5.00
2016-09-04T06:31:10.094Z,5.00
2016-09-04T06:32:10.635Z,5.00
2016-09-04T06:33:11.115Z,5.00
2016-09-04T06:34:11.629Z,5.00
2016-09-04T06:35:12.292Z,5.00
2016-09-04T06:36:12.809Z,5.00
2016-09-04T06:37:13.168Z,5.00
2016-09-04T06:38:13.678Z,5.00
2016-09-04T06:39:14.202Z,5.00
2016-09-04T06:40:14.699Z,5.00
2016-09-04T06:41:15.218Z,6.00
2016-09-04T06:42:15.725Z,6.00
2016-09-04T06:43:16.245Z,6.00
2016-09-04T06:44:16.751Z,7.00
2016-09-04T06:45:17.262Z,7.00
2016-09-04T06:46:17.778Z,8.00
2016-09-04T06:47:18.293Z,9.00
2016-09-04T06:48:18.807Z,9.00
2016-09-04T06:49:19.474Z,9.00
2016-09-04T06:50:19.837Z,10.00
2016-09-04T06:51:20.352Z,10.00
2016-09-04T06:52:20.884Z,11.00
2016-09-04T06:53:21.402Z,11.00
2016-09-04T06:54:21.878Z,11.00
2016-09-04T06:55:22.544Z,11.00
2016-09-04T06:56:23.057Z,11.00
2016-09-04T06:57:23.417Z,10.00
2016-09-04T06:58:24.082Z,9.00
2016-09-04T06:59:24.444Z,9.00
2016-09-04T07:00:24.957Z,9.00
2016-09-04T07:01:25.616Z,9.00
2016-09-04T07:02:25.972Z,8.00
2016-09-04T07:03:26.489Z,8.00
2016-09-04T07:04:27.901Z,7.00
2016-09-04T07:05:27.521Z,6.00
2016-09-04T07:06:28.170Z,6.00
2016-09-04T07:07:28.683Z,5.00
2016-09-04T07:08:29.044Z,5.00
2016-09-04T07:09:29.710Z,5.00
2016-09-04T07:10:30.069Z,5.00
2016-09-04T07:11:30.585Z,4.00
2016-09-04T07:12:31.096Z,4.00
2016-09-04T07:13:31.627Z,5.00
2016-09-04T07:14:32.278Z,5.00
2016-09-04T07:15:32.629Z,5.00
2016-09-04T07:16:33.444Z,5.00
2016-09-04T07:17:33.661Z,5.00
2016-09-04T07:18:34.177Z,5.00
2016-09-04T07:19:34.834Z,5.00
2016-09-04T07:20:35.198Z,5.00
2016-09-04T07:21:35.723Z,5.00
2016-09-04T07:22:36.219Z,5.00
2016-09-04T07:23:36.735Z,5.00
2016-09-04T07:24:37.251Z,5.00
2016-09-04T07:25:37.761Z,4.00
2016-09-04T07:26:38.430Z,4.00
2016-09-04T07:27:39.093Z,4.00
2016-09-04T07:28:39.449Z,4.00
2016-09-04T07:29:39.816Z,5.00
2016-09-04T07:30:40.476Z,5.00
2016-09-04T07:31:40.837Z,5.00
2016-09-04T07:32:42.171Z,5.00
2016-09-04T07:33:41.862Z,5.00
2016-09-04T07:34:42.377Z,6.00
2016-09-04T07:35:42.886Z,6.00
2016-09-04T07:36:43.398Z,6.00
2016-09-04T07:37:44.061Z,6.00
2016-09-04T07:38:44.573Z,6.00
2016-09-04T07:39:44.938Z,6.00
2016-09-04T07:40:45.454Z,7.00
2016-09-04T07:41:46.109Z,7.00
2016-09-04T07:42:46.612Z,7.00
2016-09-04T07:43:46.980Z,7.00
2016-09-04T07:44:47.490Z,7.00
2016-09-04T07:45:49.652Z,7.00
2016-09-04T07:46:48.514Z,7.00
2016-09-04T07:47:49.025Z,7.00
2016-09-04T07:48:49.539Z,7.00
2016-09-04T07:49:50.046Z,6.00
2016-09-04T07:50:50.559Z,6.00
2016-09-04T07:51:51.068Z,6.00
2016-09-04T07:52:51.580Z,5.00
2016-09-04T07:53:52.245Z,5.00
2016-09-04T07:54:52.755Z,5.00
2016-09-04T07:55:53.127Z,5.00
2016-09-04T07:56:53.641Z,5.00
2016-09-04T07:57:54.149Z,5.00
2016-09-04T07:58:54.659Z,5.00
2016-09-04T07:59:55.177Z,5.00
2016-09-04T08:00:55.720Z,5.00
2016-09-04T08:01:56.210Z,6.00
2016-09-04T08:02:56.721Z,6.00
2016-09-04T08:03:57.232Z,6.00
2016-09-04T08:04:57.746Z,7.00
2016-09-04T08:05:58.261Z,7.00
2016-09-04T08:06:58.772Z,7.00
2016-09-04T08:07:59.287Z,7.00
2016-09-04T08:08:59.798Z,6.00
2016-09-04T08:10:00.315Z,6.00
2016-09-04T08:11:00.827Z,6.00
2016-09-04T08:12:01.358Z,6.00
2016-09-04T08:13:02.151Z,5.00
2016-09-04T08:14:02.399Z,5.00
2016-09-04T08:15:02.876Z,4.00
2016-09-04T08:16:03.409Z,4.00
2016-09-04T08:17:03.897Z,4.00
2016-09-04T08:18:04.407Z,4.00
2016-09-04T08:19:04.921Z,5.00
2016-09-04T08:20:05.445Z,6.00
2016-09-04T08:21:06.100Z,7.00
2016-09-04T08:22:06.614Z,8.00
2016-09-04T08:23:06.973Z,8.00
2016-09-04T08:24:07.488Z,8.00
2016-09-04T08:25:08.154Z,8.00
2016-09-04T08:26:08.513Z,8.00
2016-09-04T08:27:09.172Z,8.00
2016-09-04T08:28:09.532Z,8.00
2016-09-04T08:29:10.043Z,8.00
2016-09-04T08:30:10.558Z,8.00
2016-09-04T08:31:11.221Z,8.00
2016-09-04T08:32:11.589Z,8.00
2016-09-04T08:33:12.095Z,8.00
2016-09-04T08:34:12.613Z,8.00
2016-09-04T08:35:13.144Z,8.00
2016-09-04T08:36:13.659Z,8.00
2016-09-04T08:37:14.312Z,8.00
2016-09-04T08:38:14.822Z,8.00
2016-09-04T08:39:15.344Z,8.00
2016-09-04T08:40:15.741Z,8.00
2016-09-04T08:41:16.356Z,9.00
2016-09-04T08:42:16.869Z,9.00
2016-09-04T08:43:17.380Z,9.00
2016-09-04T08:44:17.747Z,9.00
2016-09-04T08:45:18.260Z,9.00
2016-09-04T08:46:18.770Z,10.00
2016-09-04T08:47:19.281Z,10.00
2016-09-04T08:48:20.991Z,11.00
2016-09-04T08:49:20.306Z,11.00
2016-09-04T08:50:20.819Z,10.00
2016-09-04T08:51:21.331Z,11.00
2016-09-04T08:52:21.840Z,11.00
2016-09-04T08:53:22.354Z,12.00
2016-09-04T08:54:22.867Z,12.00
2016-09-04T08:55:23.378Z,12.00
2016-09-04T08:56:23.894Z,13.00
2016-09-04T08:57:24.403Z,13.00
2016-09-04T08:58:24.917Z,13.00
2016-09-04T08:59:25.427Z,14.00
2016-09-04T09:00:25.937Z,15.00
2016-09-04T09:01:26.566Z,15.00
2016-09-04T09:02:26.967Z,15.00
2016-09-04T09:03:27.481Z,14.00
2016-09-04T09:04:27.987Z,14.00
2016-09-04T09:05:28.498Z,13.00
2016-09-04T09:06:29.015Z,12.00
2016-09-04T09:07:29.525Z,12.00
2016-09-04T09:08:30.044Z,12.00
2016-09-04T09:09:30.702Z,11.00
2016-09-04T09:10:31.064Z,11.00
2016-09-04T09:11:31.575Z,10.00
2016-09-04T09:12:32.241Z,10.00
2016-09-04T09:13:32.605Z,10.00
2016-09-04T09:14:33.122Z,10.00
2016-09-04T09:15:33.647Z,11.00
2016-09-04T09:16:34.151Z,11.00
2016-09-04T09:17:34.659Z,12.00
2016-09-04T09:18:35.170Z,13.00
2016-09-04T09:19:36.729Z,14.00
2016-09-04T09:20:36.188Z,14.00
2016-09-04T09:21:36.851Z,15.00
2016-09-04T09:22:37.210Z,15.00
2016-09-04T09:23:37.720Z,15.00
2016-09-04T09:24:38.235Z,16.00
2016-09-04T09:25:38.747Z,16.00
2016-09-04T09:26:39.283Z,16.00
2016-09-04T09:27:39.925Z,16.00
2016-09-04T09:28:40.285Z,17.00
2016-09-04T09:29:40.791Z,18.00
2016-09-04T09:30:41.305Z,20.00
2016-09-04T09:31:41.812Z,21.00
2016-09-04T09:32:42.475Z,22.00
2016-09-04T09:33:42.837Z,21.00
2016-09-04T09:34:43.357Z,21.00
2016-09-04T09:35:43.874Z,22.00
2016-09-04T09:36:44.533Z,22.00
2016-09-04T09:37:44.892Z,23.00
2016-09-04T09:38:45.423Z,24.00
2016-09-04T09:39:45.917Z,24.00
2016-09-04T09:40:46.440Z,24.00
2016-09-04T09:41:46.944Z,25.00
2016-09-04T09:42:47.451Z,26.00
2016-09-04T09:43:47.991Z,27.00
2016-09-04T09:44:48.512Z,31.00
2016-09-04T09:45:48.989Z,30.00
2016-09-04T09:46:49.533Z,27.00
2016-09-04T09:47:50.019Z,25.00
2016-09-04T09:48:50.685Z,25.00
2016-09-04T09:49:51.200Z,26.00
2016-09-04T09:50:51.565Z,26.00
2016-09-04T09:51:52.101Z,27.00
2016-09-04T09:52:52.737Z,28.00
2016-09-04T09:53:53.097Z,29.00
2016-09-04T09:54:53.619Z,30.00
2016-09-04T09:55:54.123Z,31.00
2016-09-04T09:56:54.638Z,32.00
2016-09-04T09:57:55.151Z,34.00
2016-09-04T09:58:55.677Z,34.00
2016-09-04T09:59:56.169Z,34.00
2016-09-04T10:00:56.681Z,35.00
2016-09-04T10:01:58.690Z,35.00
2016-09-04T10:02:57.703Z,34.00
2016-09-04T10:03:58.231Z,33.00
2016-09-04T10:04:58.871Z,30.00
2016-09-04T10:05:59.235Z,34.00
2016-09-04T10:06:59.746Z,34.00
2016-09-04T10:08:00.255Z,33.00
2016-09-04T10:09:00.768Z,31.00
2016-09-04T10:10:01.436Z,29.00
2016-09-04T10:11:02.718Z,31.00
2016-09-04T10:12:02.307Z,31.00
2016-09-04T10:13:02.815Z,33.00
2016-09-04T10:14:03.628Z,39.00
2016-09-04T10:15:03.834Z,35.00
2016-09-04T10:16:04.494Z,51.00
2016-09-04T10:17:04.873Z,51.00
2016-09-04T10:18:05.510Z,47.00
2016-09-04T10:19:05.876Z,36.00
2016-09-04T10:20:06.392Z,35.00
2016-09-04T10:21:06.900Z,35.00
2016-09-04T10:22:07.413Z,37.00
2016-09-04T10:23:08.077Z,50.00
2016-09-04T10:24:08.441Z,51.00
2016-09-04T10:25:08.965Z,48.00
2016-09-04T10:26:09.475Z,47.00
2016-09-04T10:27:09.983Z,37.00
2016-09-04T10:28:10.649Z,39.00
2016-09-04T10:29:11.162Z,50.00
2016-09-04T10:30:11.528Z,49.00
2016-09-04T10:31:12.043Z,69.00
2016-09-04T10:32:12.544Z,71.00
2016-09-04T10:33:13.059Z,44.00
2016-09-04T10:34:13.564Z,35.00
2016-09-04T10:35:14.077Z,30.00
2016-09-04T10:36:14.602Z,32.00
2016-09-04T10:37:15.253Z,48.00
2016-09-04T10:38:15.614Z,51.00
2016-09-04T10:39:16.127Z,65.00
2016-09-04T10:40:16.637Z,43.00
2016-09-04T10:41:17.764Z,43.00
2016-09-04T10:42:17.670Z,58.00
2016-09-04T10:43:18.201Z,33.00
2016-09-04T10:44:18.685Z,42.00
2016-09-04T10:45:19.214Z,36.00
2016-09-04T10:46:19.868Z,63.00
2016-09-04T10:47:20.231Z,48.00
2016-09-04T10:48:20.896Z,36.00
2016-09-04T10:49:21.257Z,63.00
2016-09-04T10:50:21.764Z,66.00
2016-09-04T10:51:22.424Z,64.00
2016-09-04T10:52:22.793Z,67.00
2016-09-04T10:53:23.297Z,65.00
2016-09-04T10:54:23.956Z,65.00
2016-09-04T10:55:24.319Z,66.00
2016-09-04T10:56:24.855Z,66.00
2016-09-04T10:57:25.346Z,66.00
2016-09-04T10:58:25.859Z,66.00
2016-09-04T10:59:26.377Z,51.00
2016-09-04T11:00:26.893Z,54.00
2016-09-04T11:01:27.416Z,42.00
2016-09-04T11:02:28.071Z,38.00
2016-09-04T11:03:28.434Z,35.00
2016-09-04T11:04:28.957Z,47.00
2016-09-04T11:05:29.459Z,33.00
2016-09-04T11:06:29.973Z,25.00
2016-09-04T11:07:30.489Z,23.00
2016-09-04T11:08:31.022Z,21.00
2016-09-04T11:09:31.506Z,20.00
2016-09-04T11:10:32.025Z,18.00
2016-09-04T11:11:32.532Z,16.00
2016-09-04T11:12:33.050Z,15.00
2016-09-04T11:13:33.569Z,14.00
2016-09-04T11:14:34.080Z,13.00
2016-09-04T11:15:34.599Z,12.00
2016-09-04T11:16:35.111Z,11.00
2016-09-04T11:17:35.626Z,10.00
2016-09-04T11:18:36.170Z,10.00
2016-09-04T11:19:36.671Z,9.00
2016-09-04T11:20:37.191Z,8.00
2016-09-04T11:21:37.697Z,8.00
2016-09-04T11:22:38.195Z,7.00
2016-09-04T11:23:38.856Z,7.00
2016-09-04T11:24:39.220Z,6.00
2016-09-04T11:25:39.734Z,6.00
2016-09-04T11:26:40.242Z,5.00
2016-09-04T11:27:40.753Z,5.00
2016-09-04T11:28:41.412Z,4.00
2016-09-04T11:29:41.786Z,4.00
2016-09-04T11:30:42.285Z,4.00
2016-09-04T11:31:44.754Z,3.00
2016-09-04T11:32:43.307Z,3.00
2016-09-04T11:33:43.823Z,3.00
2016-09-04T11:34:44.337Z,3.00
2016-09-04T11:35:45.003Z,3.00
2016-09-04T11:36:45.370Z,2.00
2016-09-04T11:37:45.908Z,2.00
2016-09-04T11:38:46.427Z,2.00
2016-09-04T11:39:46.909Z,2.00
2016-09-04T11:40:47.434Z,2.00
2016-09-04T11:41:47.938Z,2.00
2016-09-04T11:42:48.463Z,2.00
2016-09-04T11:43:48.962Z,2.00
2016-09-04T11:44:49.620Z,1.00
2016-09-04T11:45:49.988Z,1.00
2016-09-04T11:46:50.502Z,1.00
2016-09-04T11:47:51.016Z,1.00
2016-09-04T11:48:51.527Z,1.00
2016-09-04T11:49:52.210Z,1.00
2016-09-04T11:50:52.550Z,1.00
2016-09-04T11:51:53.064Z,1.00
2016-09-04T11:52:53.731Z,1.00
2016-09-04T11:53:54.091Z,1.00
2016-09-04T11:54:54.601Z,1.00
2016-09-04T11:55:55.117Z,1.00
2016-09-04T11:56:55.628Z,1.00
2016-09-04T11:57:56.141Z,1.00
2016-09-04T11:58:56.655Z,1.00
2016-09-04T11:59:57.189Z,0.00
2016-09-04T12:00:57.685Z,0.00
2016-09-04T12:01:58.197Z,0.00
2016-09-04T12:02:58.709Z,0.00
2016-09-04T12:03:59.229Z,0.00
2016-09-04T12:04:59.730Z,0.00
2016-09-04T12:06:00.249Z,0.00
2016-09-04T12:07:00.757Z,0.00
2016-09-04T12:08:01.269Z,0.00
2016-09-04T12:09:01.789Z,0.00
2016-09-04T12:10:02.296Z,0.00
2016-09-04T12:11:02.813Z,0.00
2016-09-04T12:12:03.331Z,0.00
2016-09-04T12:13:03.999Z,0.00
2016-09-04T12:14:04.514Z,0.00
2016-09-04T12:15:04.899Z,0.00
2016-09-04T12:16:05.540Z,0.00
2016-09-04T12:17:05.901Z,0.00
2016-09-04T12:18:06.414Z,0.00
2016-09-04T12:19:07.076Z,0.00
2016-09-04T12:20:07.435Z,0.00
2016-09-04T12:21:07.946Z,0.00
2016-09-04T12:22:08.455Z,0.00
2016-09-04T12:23:08.966Z,0.00
2016-09-04T12:24:09.482Z,0.00
2016-09-04T12:25:10.000Z,0.00
2016-09-04T12:26:10.503Z,0.00
2016-09-04T12:27:11.012Z,0.00
2016-09-04T12:28:11.529Z,0.00
2016-09-04T12:29:12.038Z,0.00
2016-09-04T12:30:12.700Z,0.00
2016-09-04T12:31:13.067Z,1.00
2016-09-04T12:32:13.574Z,1.00
2016-09-04T12:33:14.088Z,1.00
2016-09-04T12:34:14.748Z,1.00
2016-09-04T12:35:15.136Z,1.00
2016-09-04T12:36:15.619Z,1.00
2016-09-04T12:37:16.285Z,1.00
2016-09-04T12:38:16.641Z,1.00
2016-09-04T12:39:17.154Z,2.00
2016-09-04T12:40:17.665Z,2.00
2016-09-04T12:41:18.173Z,2.00
2016-09-04T12:42:18.835Z,2.00
2016-09-04T12:43:19.195Z,3.00
2016-09-04T12:44:19.708Z,3.00
2016-09-04T12:45:20.221Z,4.00
2016-09-04T12:46:20.735Z,4.00
2016-09-04T12:47:21.269Z,5.00
2016-09-04T12:48:21.766Z,5.00
2016-09-04T12:49:22.277Z,6.00
2016-09-04T12:50:22.795Z,7.00
2016-09-04T12:51:23.462Z,8.00
2016-09-04T12:52:23.971Z,10.00
2016-09-04T12:53:24.513Z,12.00
2016-09-04T12:54:24.843Z,14.00
2016-09-04T12:55:25.513Z,16.00
2016-09-04T12:56:25.880Z,16.00
2016-09-04T12:57:26.384Z,18.00
2016-09-04T12:58:26.895Z,20.00
2016-09-04T12:59:27.405Z,20.00
2016-09-04T13:00:27.917Z,25.00
2016-09-04T13:01:28.442Z,23.00
2016-09-04T13:02:28.932Z,24.00
2016-09-04T13:03:29.450Z,24.00
2016-09-04T13:04:29.967Z,25.00
2016-09-04T13:05:30.472Z,27.00
2016-09-04T13:06:30.989Z,28.00
2016-09-04T13:07:33.157Z,30.00
2016-09-04T13:08:32.010Z,30.00
2016-09-04T13:09:32.526Z,36.00
2016-09-04T13:10:33.030Z,78.00
2016-09-04T13:11:33.569Z,75.00
2016-09-04T13:12:34.055Z,19.00
2016-09-04T13:13:34.565Z,15.00
2016-09-04T13:14:35.082Z,12.00
2016-09-04T13:15:35.617Z,11.00
2016-09-04T13:16:36.274Z,10.00
2016-09-04T13:17:36.615Z,9.00
2016-09-04T13:18:37.132Z,9.00
2016-09-04T13:19:37.645Z,9.00